Time;durP1;ratioP1;P1;durP2;ratioP2;P2;SDS_P1;SDS_P2;PMS_P1;PMS_P2;Temp;Humidity;BMP_temperature;BMP_pressure;BME280_temperature;BME280_humidity;BME280_pressure;Samples;Min_cycle;Max_cycle;Signal;HPM_P1;HPM_P2
2023/04/28 00:02:34;;;;;;;97.57;56.37;;;;;;;13.10;100.00;99444.87;1729450;83;21191;-81
2023/04/28 00:05:40;;;;;;;122.75;61.13;;;;;;;13.05;100.00;99442.77;1729500;83;21235;-82
2023/04/28 00:08:46;;;;;;;136.75;68.97;;;;;;;12.98;100.00;99448.78;1729358;83;21180;-81
2023/04/28 00:11:52;;;;;;;167.65;71.67;;;;;;;13.05;100.00;99453.75;1727877;83;21227;-81
2023/04/28 00:14:57;;;;;;;142.18;65.05;;;;;;;13.08;100.00;99451.63;1729419;83;21271;-81
2023/04/28 00:18:03;;;;;;;165.10;68.47;;;;;;;13.05;100.00;99462.52;1728363;83;21309;-81
2023/04/28 00:21:08;;;;;;;114.03;59.05;;;;;;;12.92;100.00;99457.03;1729388;83;21188;-81
2023/04/28 00:24:14;;;;;;;93.80;50.75;;;;;;;12.90;100.00;99455.88;1729258;83;21192;-81
2023/04/28 00:27:20;;;;;;;97.05;51.73;;;;;;;12.87;100.00;99447.22;1728083;83;21235;-81
2023/04/28 00:30:26;;;;;;;101.02;56.15;;;;;;;12.86;100.00;99450.50;1728071;83;21216;-81
2023/04/28 00:33:32;;;;;;;100.95;54.30;;;;;;;12.87;100.00;99451.34;1728104;83;21243;-81
2023/04/28 00:36:37;;;;;;;106.52;53.70;;;;;;;12.81;100.00;99458.52;1728081;83;21192;-82
2023/04/28 00:39:45;;;;;;;104.58;52.00;;;;;;;12.88;100.00;99460.72;1729589;83;21188;-81
2023/04/28 00:42:50;;;;;;;91.82;50.92;;;;;;;12.82;100.00;99469.81;1729400;83;21188;-82
2023/04/28 00:45:56;;;;;;;85.77;48.20;;;;;;;12.78;100.00;99473.50;1729274;83;21192;-82
2023/04/28 00:49:02;;;;;;;92.95;48.75;;;;;;;12.83;100.00;99472.86;1727027;82;21920;-82
2023/04/28 00:52:14;;;;;;;81.10;45.38;;;;;;;13.04;100.00;99475.94;1723744;83;21177;-81
2023/04/28 00:55:19;;;;;;;82.12;44.38;;;;;;;12.90;100.00;99484.70;1723481;83;21188;-81
2023/04/28 00:58:24;;;;;;;80.92;43.52;;;;;;;12.93;100.00;99482.89;1710272;83;21216;-82
2023/04/28 01:01:30;;;;;;;71.65;41.48;;;;;;;12.85;100.00;99481.75;1723656;83;21252;-82
2023/04/28 01:04:35;;;;;;;58.83;34.80;;;;;;;12.95;100.00;99488.19;1723606;83;21192;-82
2023/04/28 01:07:41;;;;;;;60.35;36.98;;;;;;;12.96;100.00;99489.87;1723401;83;21232;-81
2023/04/28 01:10:52;;;;;;;61.60;35.80;;;;;;;12.94;100.00;99489.25;1723602;83;21191;-81
2023/04/28 01:13:53;;;;;;;64.97;34.40;;;;;;;12.87;100.00;99485.11;1722163;83;21232;-81
2023/04/28 01:17:01;;;;;;;58.73;32.38;;;;;;;12.82;100.00;99480.79;1723576;83;21168;-81
2023/04/28 01:20:07;;;;;;;69.40;35.20;;;;;;;12.95;100.00;99482.16;1723502;83;21215;-81
2023/04/28 01:23:13;;;;;;;68.22;35.60;;;;;;;12.99;100.00;99487.55;1723716;83;21255;-81
2023/04/28 01:26:18;;;;;;;72.85;38.48;;;;;;;12.95;100.00;99490.93;1710792;83;21752;-80
2023/04/28 01:29:24;;;;;;;76.60;38.55;;;;;;;12.86;100.00;99493.57;1722552;83;21221;-81
2023/04/28 01:32:32;;;;;;;62.25;35.65;;;;;;;12.94;100.00;99490.09;1723568;83;21188;-81
2023/04/28 01:35:37;;;;;;;61.00;31.95;;;;;;;12.93;100.00;99500.73;1723647;83;21707;-81
2023/04/28 01:38:42;;;;;;;50.40;30.27;;;;;;;13.00;100.00;99518.59;1723109;83;21165;-81
2023/04/28 01:41:48;;;;;;;47.55;28.25;;;;;;;12.98;100.00;99526.17;1723344;83;21263;-81
2023/04/28 01:44:54;;;;;;;45.80;27.27;;;;;;;12.75;100.00;99524.70;1723467;83;21168;-81
2023/04/28 01:48:01;;;;;;;44.42;26.52;;;;;;;12.78;100.00;99520.68;1723609;83;21251;-81
2023/04/28 01:51:07;;;;;;;42.25;24.47;;;;;;;12.83;100.00;99520.89;1726409;82;21856;-81
2023/04/28 01:54:12;;;;;;;35.43;20.85;;;;;;;12.83;100.00;99518.68;1729402;83;21200;-81
2023/04/28 01:57:16;;;;;;;39.42;24.12;;;;;;;12.73;100.00;99518.56;1728993;83;21262;-81
2023/04/28 02:00:23;;;;;;;39.00;25.10;;;;;;;12.69;100.00;99517.29;1728407;83;21247;-81
2023/04/28 02:03:29;;;;;;;37.00;23.47;;;;;;;12.80;100.00;99519.96;1729265;83;21224;-81
2023/04/28 02:06:35;;;;;;;37.45;23.52;;;;;;;12.85;100.00;99517.43;1729167;83;21184;-81
2023/04/28 02:09:35;;;;;;;;;;;;;;;12.79;100.00;99514.13;1731101;83;21267;-81
2023/04/28 02:12:41;;;;;;;38.85;23.35;;;;;;;12.79;100.00;99515.50;1728818;83;20214;-81
2023/04/28 02:15:48;;;;;;;34.55;22.95;;;;;;;12.78;100.00;99503.69;1729206;83;21188;-81
2023/04/28 02:18:54;;;;;;;37.78;23.27;;;;;;;12.82;100.00;99507.39;1729051;83;21818;-81
2023/04/28 02:21:59;;;;;;;36.48;23.80;;;;;;;12.78;100.00;99506.96;1729236;83;21164;-81
2023/04/28 02:25:04;;;;;;;36.58;22.77;;;;;;;12.65;100.00;99506.94;1729320;83;21184;-81
2023/04/28 02:28:09;;;;;;;39.35;23.32;;;;;;;12.67;100.00;99502.95;1728592;83;21215;-81
2023/04/28 02:31:16;;;;;;;35.75;21.30;;;;;;;12.77;100.00;99497.05;1729107;83;21813;-81
2023/04/28 02:34:21;;;;;;;33.13;23.10;;;;;;;12.71;100.00;99488.29;1729225;83;21227;-81
2023/04/28 02:37:27;;;;;;;46.23;24.45;;;;;;;12.83;100.00;99485.75;1729290;83;21188;-81
2023/04/28 02:40:33;;;;;;;46.28;24.32;;;;;;;12.92;100.00;99489.44;1728014;83;21164;-81
2023/04/28 02:43:38;;;;;;;33.70;21.70;;;;;;;12.92;100.00;99482.58;1728485;83;21219;-81
2023/04/28 02:46:45;;;;;;;38.67;22.82;;;;;;;12.88;100.00;99481.30;1729199;83;21172;-81
2023/04/28 02:49:51;;;;;;;39.05;24.12;;;;;;;12.65;100.00;99487.73;1728617;83;21219;-81
2023/04/28 02:52:56;;;;;;;40.03;23.73;;;;;;;12.71;100.00;99486.39;1723089;82;21231;-81
2023/04/28 02:56:03;;;;;;;46.35;23.92;;;;;;;12.71;100.00;99481.43;1722269;83;21236;-81
2023/04/28 02:59:08;;;;;;;35.83;20.57;;;;;;;12.71;100.00;99491.03;1722616;83;21778;-81
2023/04/28 03:02:15;;;;;;;32.42;21.35;;;;;;;12.73;100.00;99486.17;1723492;83;21239;-81
2023/04/28 03:05:21;;;;;;;38.98;22.10;;;;;;;12.71;100.00;99477.31;1723533;83;21181;-81
2023/04/28 03:08:26;;;;;;;31.93;19.45;;;;;;;12.58;100.00;99478.67;1722310;83;21185;-81
2023/04/28 03:11:32;;;;;;;32.93;20.52;;;;;;;12.54;100.00;99485.09;1723558;83;21286;-81
2023/04/28 03:14:38;;;;;;;43.78;21.57;;;;;;;12.52;100.00;99472.12;1722424;83;21223;-81
2023/04/28 03:17:44;;;;;;;39.33;20.32;;;;;;;12.52;100.00;99474.34;1723560;83;21181;-81
2023/04/28 03:20:49;;;;;;;37.33;19.95;;;;;;;12.66;100.00;99472.98;1722553;83;21196;-81
2023/04/28 03:23:54;;;;;;;37.33;20.65;;;;;;;12.73;100.00;99466.43;1723504;83;21180;-81
2023/04/28 03:27:02;;;;;;;31.73;19.20;;;;;;;12.49;100.00;99454.70;1722045;83;21200;-81
2023/04/28 03:30:09;;;;;;;29.32;19.23;;;;;;;12.63;100.00;99450.08;1722282;83;21271;-81
2023/04/28 03:33:07;;;;;;;41.83;19.90;;;;;;;12.64;100.00;99451.76;1723453;83;21213;-81
2023/04/28 03:36:00;;;;;;;34.58;20.17;;;;;;;12.63;100.00;99456.94;1723596;83;21192;-81
2023/04/28 03:39:06;;;;;;;31.73;18.00;;;;;;;12.64;100.00;99453.97;1723472;83;21192;-81
2023/04/28 03:42:04;;;;;;;31.62;19.85;;;;;;;12.59;100.00;99459.78;1723918;83;21259;-82
2023/04/28 03:45:22;;;;;;;39.90;21.02;;;;;;;12.60;100.00;99462.30;1681300;83;21282;-82
2023/04/28 03:48:28;;;;;;;38.42;19.87;;;;;;;12.59;100.00;99460.63;1723538;83;21227;-80
2023/04/28 03:51:33;;;;;;;29.80;19.32;;;;;;;12.58;100.00;99452.61;1722428;83;21287;-80
2023/04/28 03:54:37;;;;;;;32.30;18.73;;;;;;;12.63;100.00;99447.33;1723582;83;21202;-81
2023/04/28 03:57:43;;;;;;;31.93;18.42;;;;;;;12.49;100.00;99438.25;1723680;83;21176;-80
2023/04/28 04:00:48;;;;;;;29.75;18.73;;;;;;;12.49;100.00;99444.58;1722206;83;21208;-81
2023/04/28 04:03:55;;;;;;;26.48;17.98;;;;;;;12.66;100.00;99436.79;1723426;83;21200;-81
2023/04/28 04:07:01;;;;;;;32.38;18.32;;;;;;;12.68;100.00;99443.43;1723485;83;21291;-80
2023/04/28 04:10:06;;;;;;;28.05;17.95;;;;;;;12.74;100.00;99439.83;1723426;83;21219;-81
2023/04/28 04:13:12;;;;;;;24.02;17.87;;;;;;;12.69;100.00;99447.85;1723729;83;21396;-80
2023/04/28 04:16:20;;;;;;;27.87;16.60;;;;;;;12.57;100.00;99464.64;1722107;83;21473;-80
2023/04/28 04:19:14;;;;;;;25.15;16.55;;;;;;;12.59;100.00;99463.89;1722112;83;21196;-80
2023/04/28 04:22:19;;;;;;;23.10;15.03;;;;;;;12.58;100.00;99469.91;1722187;83;21188;-81
2023/04/28 04:25:25;;;;;;;27.73;15.25;;;;;;;12.61;100.00;99482.34;1723666;83;21188;-81
2023/04/28 04:28:31;;;;;;;23.50;15.68;;;;;;;12.63;100.00;99485.22;1723603;83;21223;-80
2023/04/28 04:31:38;;;;;;;22.48;14.45;;;;;;;12.71;100.00;99484.17;1722159;83;21220;-80
2023/04/28 04:34:46;;;;;;;19.85;14.90;;;;;;;12.64;100.00;99479.20;1723705;83;21227;-80
2023/04/28 04:37:51;;;;;;;22.67;17.80;;;;;;;12.66;100.00;99483.97;1723782;83;21219;-81
2023/04/28 04:40:56;;;;;;;25.68;17.35;;;;;;;12.70;100.00;99491.56;1723557;83;21746;-80
2023/04/28 04:44:03;;;;;;;22.82;16.42;;;;;;;12.74;100.00;99493.34;1723584;83;21164;-81
2023/04/28 04:47:11;;;;;;;23.15;14.50;;;;;;;12.71;100.00;99501.48;1723730;83;21183;-81
2023/04/28 04:50:17;;;;;;;20.90;15.48;;;;;;;12.80;100.00;99503.50;1723754;83;21200;-80
2023/04/28 04:53:22;;;;;;;27.10;14.40;;;;;;;12.88;100.00;99498.30;1724054;83;21268;-81
2023/04/28 04:56:28;;;;;;;23.60;14.55;;;;;;;12.94;100.00;99496.95;1723344;83;21258;-81
2023/04/28 04:59:34;;;;;;;18.85;12.70;;;;;;;12.99;100.00;99503.19;1699394;84;21264;-81
2023/04/28 05:02:42;;;;;;;19.52;13.22;;;;;;;12.97;100.00;99505.27;1698561;84;21232;-80
2023/04/28 05:05:48;;;;;;;19.92;13.30;;;;;;;12.98;100.00;99502.31;1698386;84;21177;-81
2023/04/28 05:08:58;;;;;;;22.90;12.90;;;;;;;13.01;100.00;99504.64;1698111;84;21173;-80
2023/04/28 05:12:03;;;;;;;18.05;12.98;;;;;;;13.03;100.00;99511.28;1699482;84;21218;-81
2023/04/28 05:15:11;;;;;;;18.90;13.22;;;;;;;13.05;100.00;99516.89;1700514;84;21767;-82
2023/04/28 05:18:18;;;;;;;17.55;12.53;;;;;;;13.04;100.00;99512.47;1698933;84;21875;-80
2023/04/28 05:21:24;;;;;;;22.45;13.48;;;;;;;13.12;100.00;99514.66;1700940;84;21736;-81
2023/04/28 05:24:30;;;;;;;17.87;12.23;;;;;;;13.11;100.00;99521.22;1700537;84;21764;-81
2023/04/28 05:27:38;;;;;;;17.73;12.55;;;;;;;13.20;100.00;99520.79;1663921;84;22650;-81
2023/04/28 05:30:44;;;;;;;19.05;12.28;;;;;;;13.23;100.00;99530.55;1698153;83;21200;-81
2023/04/28 05:33:50;;;;;;;18.70;12.63;;;;;;;13.26;100.00;99530.10;1710283;83;21205;-82
2023/04/28 05:36:49;;;;;;;19.60;13.18;;;;;;;13.23;100.00;99538.78;1710965;83;21197;-82
2023/04/28 05:39:43;;;;;;;24.05;13.62;;;;;;;13.27;100.00;99540.05;1708860;83;21228;-82
2023/04/28 05:42:50;;;;;;;17.85;12.63;;;;;;;13.34;100.00;99533.17;1698323;84;21209;-82
2023/04/28 05:45:55;;;;;;;19.60;12.63;;;;;;;13.36;100.00;99530.54;1698065;84;21268;-82
2023/04/28 05:49:02;;;;;;;16.62;11.97;;;;;;;13.25;100.00;99536.66;1671109;85;21799;-82
2023/04/28 05:52:07;;;;;;;18.17;12.35;;;;;;;13.28;100.00;99542.58;1673125;85;21256;-82
2023/04/28 05:55:13;;;;;;;19.60;12.28;;;;;;;13.24;100.00;99539.94;1677135;84;21250;-82
2023/04/28 05:58:11;;;;;;;17.12;12.37;;;;;;;13.17;100.00;99540.42;1710260;83;21189;-82
2023/04/28 06:01:16;;;;;;;21.68;14.60;;;;;;;13.26;100.00;99541.09;1708725;83;21249;-81
2023/04/28 06:04:22;;;;;;;18.80;13.18;;;;;;;13.31;100.00;99537.17;1708854;83;21662;-82
2023/04/28 06:07:28;;;;;;;16.48;11.97;;;;;;;13.33;100.00;99528.21;1706331;84;21193;-82
2023/04/28 06:10:33;;;;;;;24.05;12.45;;;;;;;13.31;100.00;99539.92;1664558;84;21209;-81
2023/04/28 06:13:38;;;;;;;15.45;11.08;;;;;;;13.20;100.00;99535.05;1691466;84;21372;-81
2023/04/28 06:16:44;;;;;;;16.73;11.18;;;;;;;13.28;100.00;99542.58;1672833;85;21214;-82
2023/04/28 06:19:50;;;;;;;17.80;12.10;;;;;;;13.28;100.00;99543.11;1675587;85;21217;-81
2023/04/28 06:22:55;;;;;;;17.20;12.93;;;;;;;13.28;100.00;99559.59;1685753;84;21191;-82
2023/04/28 06:26:03;;;;;;;21.23;13.35;;;;;;;13.21;100.00;99570.52;1688968;84;21188;-82
2023/04/28 06:29:10;;;;;;;15.75;12.20;;;;;;;13.16;100.00;99574.97;1686701;85;21211;-81
2023/04/28 06:32:16;;;;;;;19.10;13.10;;;;;;;13.07;100.00;99572.95;1693754;84;21212;-81
2023/04/28 06:35:23;;;;;;;20.30;14.38;;;;;;;13.01;100.00;99566.94;1699134;84;21512;-81
2023/04/28 06:38:29;;;;;;;19.87;13.75;;;;;;;13.01;100.00;99565.56;1675529;84;21200;-81
2023/04/28 06:41:36;;;;;;;16.73;13.45;;;;;;;13.06;100.00;99569.89;1689134;84;21171;-81
2023/04/28 06:44:42;;;;;;;19.37;13.85;;;;;;;13.12;100.00;99565.45;1675874;83;21210;-81
2023/04/28 06:47:51;;;;;;;17.35;13.75;;;;;;;13.11;100.00;99570.64;1663964;84;21294;-81
2023/04/28 06:50:55;;;;;;;19.12;14.38;;;;;;;13.24;100.00;99566.56;1692056;84;21168;-81
2023/04/28 06:54:01;;;;;;;23.73;15.48;;;;;;;13.41;100.00;99587.05;1682343;84;21256;-81
2023/04/28 06:57:07;;;;;;;21.70;15.35;;;;;;;13.45;100.00;99582.80;1681063;85;21191;-81
2023/04/28 07:00:13;;;;;;;24.72;18.95;;;;;;;13.46;100.00;99583.14;1678553;84;21223;-81
2023/04/28 07:03:18;;;;;;;29.30;19.55;;;;;;;13.45;100.00;99579.21;1684731;84;21809;-81
2023/04/28 07:06:26;;;;;;;25.50;20.12;;;;;;;13.41;100.00;99581.56;1637910;87;21210;-81
2023/04/28 07:09:31;;;;;;;32.83;20.90;;;;;;;13.50;100.00;99577.54;1673818;85;21197;-81
2023/04/28 07:12:36;;;;;;;33.75;22.62;;;;;;;13.67;100.00;99582.04;1708224;83;21197;-81
2023/04/28 07:15:41;;;;;;;27.13;20.97;;;;;;;13.86;100.00;99577.56;1689779;84;21248;-81
2023/04/28 07:18:47;;;;;;;26.07;19.73;;;;;;;14.04;100.00;99581.84;1681735;84;21240;-81
2023/04/28 07:21:54;;;;;;;27.40;19.23;;;;;;;14.14;100.00;99575.05;1675399;84;21684;-81
2023/04/28 07:25:00;;;;;;;20.75;13.88;;;;;;;14.14;100.00;99566.80;1692500;84;21209;-81
2023/04/28 07:28:05;;;;;;;19.02;13.85;;;;;;;14.25;100.00;99554.56;1686421;83;21172;-80
2023/04/28 07:31:10;;;;;;;22.42;14.45;;;;;;;14.27;100.00;99555.74;1657524;84;21209;-81
2023/04/28 07:34:17;;;;;;;19.52;12.58;;;;;;;14.24;100.00;99539.67;1668417;85;21267;-81
2023/04/28 07:37:22;;;;;;;18.48;13.75;;;;;;;14.30;100.00;99540.16;1678870;85;21156;-81
2023/04/28 07:40:29;;;;;;;18.82;13.78;;;;;;;14.41;100.00;99535.36;1695270;84;22490;-80
2023/04/28 07:43:35;;;;;;;20.50;14.23;;;;;;;14.56;100.00;99535.09;1700351;84;21201;-80
2023/04/28 07:46:40;;;;;;;22.32;15.03;;;;;;;14.44;100.00;99545.90;1692372;84;21216;-80
2023/04/28 07:49:47;;;;;;;15.88;13.28;;;;;;;14.51;100.00;99544.00;1689353;83;21259;-78
2023/04/28 07:52:53;;;;;;;15.50;11.73;;;;;;;14.66;100.00;99538.73;1701601;84;21249;-81
2023/04/28 07:55:59;;;;;;;13.88;10.43;;;;;;;14.77;100.00;99547.64;1682386;84;21248;-80
2023/04/28 07:59:05;;;;;;;15.15;10.45;;;;;;;14.91;100.00;99541.52;1689869;83;21272;-80
2023/04/28 08:02:12;;;;;;;15.15;11.18;;;;;;;15.12;100.00;99542.52;1693926;84;21185;-80
2023/04/28 08:05:17;;;;;;;15.70;11.73;;;;;;;15.11;100.00;99540.84;1697176;84;21205;-80
2023/04/28 08:08:24;;;;;;;15.20;10.60;;;;;;;15.01;100.00;99540.51;1679276;85;21754;-80
2023/04/28 08:11:29;;;;;;;17.23;11.93;;;;;;;15.11;100.00;99548.27;1673510;85;21237;-80
2023/04/28 08:14:36;;;;;;;18.37;13.03;;;;;;;14.96;100.00;99541.69;1695525;84;21163;-80
2023/04/28 08:17:41;;;;;;;18.40;12.68;;;;;;;14.93;100.00;99534.73;1655378;85;21249;-80
2023/04/28 08:20:47;;;;;;;17.15;11.00;;;;;;;14.92;100.00;99527.55;1683574;84;21267;-80
2023/04/28 08:23:52;;;;;;;16.37;9.90;;;;;;;14.94;100.00;99521.27;1678386;84;21235;-80
2023/04/28 08:26:58;;;;;;;13.68;9.08;;;;;;;15.02;100.00;99541.66;1679590;84;21174;-81
2023/04/28 08:30:04;;;;;;;15.00;8.50;;;;;;;15.12;100.00;99531.51;1696911;84;21199;-80
2023/04/28 08:33:09;;;;;;;12.50;7.05;;;;;;;15.36;100.00;99537.23;1679635;85;21167;-81
2023/04/28 08:36:22;;;;;;;9.95;8.23;;;;;;;15.44;100.00;99528.14;1672750;85;21199;-81
2023/04/28 08:39:25;;;;;;;8.98;7.30;;;;;;;15.56;100.00;99530.98;1696771;84;21173;-81
2023/04/28 08:42:30;;;;;;;11.50;8.58;;;;;;;15.70;100.00;99526.20;1698385;84;21164;-80
2023/04/28 08:45:36;;;;;;;11.35;7.00;;;;;;;15.75;100.00;99520.84;1655270;85;21289;-81
2023/04/28 08:48:50;;;;;;;9.78;6.65;;;;;;;15.81;99.49;99512.52;1699272;84;21240;-80
2023/04/28 08:52:02;;;;;;;8.75;6.35;;;;;;;15.82;98.85;99516.11;1696502;84;21227;-80
2023/04/28 08:55:12;;;;;;;7.15;5.12;;;;;;;15.89;99.32;99505.84;1697901;84;21212;-81
2023/04/28 08:58:18;;;;;;;10.82;8.10;;;;;;;15.90;98.05;99517.16;1673316;84;21824;-80
2023/04/28 09:01:23;;;;;;;11.60;8.40;;;;;;;15.93;97.95;99502.92;1657263;86;21217;-80
2023/04/28 09:04:29;;;;;;;9.53;7.83;;;;;;;15.67;97.60;99504.63;1682595;85;21222;-80
2023/04/28 09:07:35;;;;;;;12.23;7.90;;;;;;;15.52;98.80;99511.83;1676610;85;21264;-80
2023/04/28 09:10:40;;;;;;;12.23;8.08;;;;;;;15.47;99.98;99499.27;1674262;85;21204;-81
2023/04/28 09:13:47;;;;;;;9.98;7.90;;;;;;;15.16;100.00;99512.09;1676714;85;21746;-80
2023/04/28 09:16:42;;;;;;;15.03;8.60;;;;;;;14.92;100.00;99503.30;1673328;85;21187;-79
2023/04/28 09:19:48;;;;;;;9.55;7.83;;;;;;;14.81;100.00;99504.84;1675870;85;21203;-80
2023/04/28 09:22:54;;;;;;;10.15;8.70;;;;;;;14.65;100.00;99499.89;1673988;85;21590;-80
2023/04/28 09:26:11;;;;;;;10.53;8.63;;;;;;;14.63;100.00;99508.89;1682529;85;21192;-79
2023/04/28 09:29:20;;;;;;;10.38;8.63;;;;;;;14.52;100.00;99497.53;1720900;83;21182;-80
2023/04/28 09:32:29;;;;;;;11.63;8.85;;;;;;;14.44;100.00;99499.13;1722561;83;21310;-80
2023/04/28 09:35:47;;;;;;;9.75;8.03;;;;;;;14.35;100.00;99497.73;1685701;85;21252;-80
2023/04/28 09:38:52;;;;;;;9.88;8.08;;;;;;;14.25;100.00;99499.55;1684893;84;21199;-81
2023/04/28 09:42:02;;;;;;;14.15;8.15;;;;;;;14.25;100.00;99506.97;1684564;85;21179;-82
2023/04/28 09:45:14;;;;;;;9.75;7.85;;;;;;;14.20;100.00;99508.16;1683543;84;21203;-81
2023/04/28 09:48:18;;;;;;;12.40;9.08;;;;;;;14.10;100.00;99516.88;1685334;84;21191;-80
2023/04/28 09:51:27;;;;;;;11.33;7.58;;;;;;;14.06;100.00;99500.50;1655573;86;21199;-80
2023/04/28 09:54:33;;;;;;;13.70;8.98;;;;;;;14.04;100.00;99502.64;1692555;83;21878;-80
2023/04/28 09:57:40;;;;;;;9.60;7.90;;;;;;;14.09;100.00;99504.20;1689012;85;21323;-79
2023/04/28 10:00:48;;;;;;;13.70;8.80;;;;;;;13.95;100.00;99489.66;1685333;84;21197;-80
2023/04/28 10:03:54;;;;;;;10.50;7.72;;;;;;;13.96;100.00;99485.84;1683830;85;21252;-80
2023/04/28 10:07:00;;;;;;;10.45;8.58;;;;;;;13.93;100.00;99489.05;1671034;85;21271;-80
2023/04/28 10:10:05;;;;;;;11.12;8.35;;;;;;;14.02;100.00;99494.62;1715369;83;21805;-80
2023/04/28 10:13:11;;;;;;;12.20;9.65;;;;;;;14.08;100.00;99494.80;1682999;83;21200;-80
2023/04/28 10:16:16;;;;;;;17.60;8.88;;;;;;;14.16;100.00;99497.28;1682872;85;21204;-80
2023/04/28 10:19:22;;;;;;;17.30;10.32;;;;;;;14.17;100.00;99495.70;1688156;85;21248;-80
2023/04/28 10:23:19;;;;;;;11.95;9.68;;;;;;;14.19;100.00;99506.48;1682486;85;21265;-80
2023/04/28 10:26:24;;;;;;;12.85;10.05;;;;;;;14.12;100.00;99498.27;1666492;86;21778;-80
2023/04/28 10:29:32;;;;;;;11.03;9.40;;;;;;;14.21;100.00;99501.59;1718382;83;21204;-80
2023/04/28 10:32:38;;;;;;;11.68;8.88;;;;;;;14.31;100.00;99496.48;1683915;85;21197;-80
2023/04/28 10:35:49;;;;;;;11.78;8.90;;;;;;;14.27;100.00;99509.82;1683637;85;21760;-80
2023/04/28 10:39:18;;;;;;;12.23;9.58;;;;;;;14.38;100.00;99503.31;1687300;85;21186;-80
2023/04/28 10:43:02;;;;;;;12.03;8.65;;;;;;;14.30;100.00;99509.39;1664455;86;21572;-80
2023/04/28 10:46:09;;;;;;;9.80;8.55;;;;;;;14.37;100.00;99492.00;1690271;84;21200;-81
2023/04/28 10:49:15;;;;;;;19.05;9.83;;;;;;;14.34;100.00;99501.52;1665014;86;21494;-81
2023/04/28 10:52:45;;;;;;;17.67;9.98;;;;;;;14.25;100.00;99498.72;1665134;86;21798;-81
2023/04/28 10:55:51;;;;;;;11.48;9.10;;;;;;;14.24;100.00;99499.78;1664247;86;21176;-80
2023/04/28 10:59:00;;;;;;;11.55;8.65;;;;;;;14.16;100.00;99493.16;1668506;86;21188;-80
2023/04/28 11:02:10;;;;;;;16.15;11.08;;;;;;;14.17;100.00;99509.99;1669051;85;21794;-79
2023/04/28 11:05:18;;;;;;;22.35;9.80;;;;;;;13.95;100.00;99484.16;1686145;85;21219;-79
2023/04/28 11:08:38;;;;;;;13.67;8.40;;;;;;;14.11;100.00;99478.69;1687755;84;21208;-79
2023/04/28 11:11:43;;;;;;;14.03;8.70;;;;;;;14.14;100.00;99469.17;1701160;83;21194;-80
2023/04/28 11:14:50;;;;;;;15.40;7.92;;;;;;;14.21;100.00;99479.59;1709600;84;21175;-79
2023/04/28 11:17:55;;;;;;;10.08;6.08;;;;;;;14.21;100.00;99475.45;1699776;84;21247;-79
2023/04/28 11:21:01;;;;;;;8.20;6.42;;;;;;;14.19;100.00;99470.72;1678489;85;21768;-79
2023/04/28 11:24:05;;;;;;;6.53;5.62;;;;;;;14.29;100.00;99455.42;1684432;83;21192;-79
2023/04/28 11:27:11;;;;;;;6.70;5.45;;;;;;;14.18;100.00;99452.55;1680988;85;21210;-80
2023/04/28 11:30:30;;;;;;;7.35;5.33;;;;;;;14.16;100.00;99440.91;1692893;84;21189;-79
2023/04/28 11:33:37;;;;;;;6.70;5.20;;;;;;;14.03;100.00;99441.84;1708597;84;21253;-79
2023/04/28 11:36:45;;;;;;;10.45;5.70;;;;;;;13.98;100.00;99435.63;1708227;84;21241;-79
2023/04/28 11:39:53;;;;;;;11.50;7.20;;;;;;;13.93;100.00;99451.94;1708915;84;21191;-79
2023/04/28 11:43:00;;;;;;;9.18;6.65;;;;;;;13.86;100.00;99454.39;1710176;84;21234;-80
2023/04/28 11:46:05;;;;;;;11.38;6.12;;;;;;;13.87;100.00;99454.16;1709649;84;21214;-81
2023/04/28 11:49:13;;;;;;;15.93;6.03;;;;;;;13.86;100.00;99456.61;1713758;83;21180;-81
2023/04/28 11:52:20;;;;;;;18.10;5.85;;;;;;;13.73;100.00;99438.27;1721999;83;21220;-82
2023/04/28 11:55:27;;;;;;;18.02;6.05;;;;;;;13.47;100.00;99448.84;1722375;83;21195;-80
2023/04/28 11:58:34;;;;;;;10.60;6.17;;;;;;;13.31;100.00;99445.17;1721291;83;22269;-83
2023/04/28 12:01:40;;;;;;;13.43;6.70;;;;;;;13.20;100.00;99442.53;1721902;83;21191;-81
2023/04/28 12:04:49;;;;;;;16.02;6.83;;;;;;;13.14;100.00;99441.18;1722220;83;21795;-81
2023/04/28 12:07:55;;;;;;;28.83;9.10;;;;;;;13.10;100.00;99417.42;1721887;83;21220;-81
2023/04/28 12:11:17;;;;;;;12.75;7.22;;;;;;;13.00;100.00;99427.47;1720860;83;21252;-81
2023/04/28 12:14:24;;;;;;;12.88;7.40;;;;;;;13.03;100.00;99423.44;1722459;83;21244;-81
2023/04/28 12:17:49;;;;;;;12.25;7.05;;;;;;;12.83;100.00;99419.35;1722240;83;21216;-81
2023/04/28 12:20:54;;;;;;;8.55;6.17;;;;;;;12.78;100.00;99415.88;1722269;83;21212;-81
2023/04/28 12:24:00;;;;;;;10.23;6.78;;;;;;;12.69;100.00;99424.00;1721035;83;21224;-81
2023/04/28 12:27:27;;;;;;;10.03;6.72;;;;;;;12.66;100.00;99420.86;1722779;83;21771;-81
2023/04/28 12:30:40;;;;;;;13.62;7.92;;;;;;;12.63;100.00;99421.27;1722767;83;21196;-81
2023/04/28 12:33:45;;;;;;;11.20;7.62;;;;;;;12.64;100.00;99429.81;1722203;83;21801;-81
2023/04/28 12:36:51;;;;;;;11.97;7.97;;;;;;;12.64;100.00;99436.14;1722701;83;21244;-81
2023/04/28 12:39:56;;;;;;;9.38;7.10;;;;;;;12.65;100.00;99432.86;1723193;83;21172;-81
2023/04/28 12:43:01;;;;;;;8.08;6.67;;;;;;;12.65;100.00;99449.33;1723434;83;21172;-81
2023/04/28 12:46:08;;;;;;;9.58;7.12;;;;;;;12.55;100.00;99430.55;1722255;83;21176;-81
2023/04/28 12:49:14;;;;;;;7.87;6.95;;;;;;;12.56;100.00;99436.34;1723901;83;21172;-81
2023/04/28 12:52:19;;;;;;;8.60;7.03;;;;;;;12.57;100.00;99428.98;1723382;83;21180;-81
2023/04/28 12:55:24;;;;;;;12.78;7.75;;;;;;;12.57;100.00;99427.08;1722529;83;21533;-81
2023/04/28 12:58:30;;;;;;;10.95;7.78;;;;;;;12.54;100.00;99418.73;1721916;83;21845;-81
2023/04/28 13:01:35;;;;;;;9.25;7.55;;;;;;;12.59;100.00;99423.59;1722966;83;21180;-81
2023/04/28 13:04:45;;;;;;;8.53;6.87;;;;;;;12.59;100.00;99425.48;1722839;83;21200;-80
2023/04/28 13:07:49;;;;;;;9.23;7.05;;;;;;;12.62;100.00;99414.95;1723270;83;21240;-80
2023/04/28 13:10:55;;;;;;;13.28;7.08;;;;;;;12.48;100.00;99429.71;1722593;83;21200;-80
2023/04/28 13:14:02;;;;;;;8.25;5.60;;;;;;;12.43;100.00;99417.16;1723115;83;21236;-80
2023/04/28 13:17:10;;;;;;;8.53;4.80;;;;;;;12.47;100.00;99423.92;1723035;83;21188;-80
2023/04/28 13:20:16;;;;;;;4.90;4.20;;;;;;;12.44;100.00;99432.02;1722408;83;21203;-79
2023/04/28 13:23:22;;;;;;;13.72;4.42;;;;;;;12.43;100.00;99430.88;1722816;83;22448;-80
2023/04/28 13:26:29;;;;;;;10.80;7.50;;;;;;;12.36;100.00;99439.07;1723028;83;21231;-80
2023/04/28 13:29:35;;;;;;;9.98;7.70;;;;;;;12.37;100.00;99431.16;1722719;83;21232;-80
2023/04/28 13:32:41;;;;;;;8.70;6.47;;;;;;;12.44;100.00;99434.77;1721904;83;21188;-79
2023/04/28 13:35:47;;;;;;;7.05;5.53;;;;;;;12.48;100.00;99436.56;1722249;83;21184;-80
2023/04/28 13:38:53;;;;;;;6.70;4.70;;;;;;;12.56;100.00;99447.84;1723357;83;21207;-80
2023/04/28 13:42:01;;;;;;;7.03;4.42;;;;;;;12.49;100.00;99446.48;1722259;83;21239;-79
2023/04/28 13:45:06;;;;;;;21.48;4.50;;;;;;;12.63;100.00;99452.82;1723678;83;21185;-80
2023/04/28 13:48:13;;;;;;;7.17;4.33;;;;;;;12.60;100.00;99466.42;1723497;83;21184;-81
2023/04/28 13:51:18;;;;;;;10.08;6.25;;;;;;;12.66;100.00;99445.55;1723585;83;21299;-80
2023/04/28 13:54:25;;;;;;;6.35;4.47;;;;;;;12.59;100.00;99448.80;1722820;83;21216;-80
2023/04/28 13:57:30;;;;;;;5.97;3.90;;;;;;;12.61;100.00;99435.71;1723556;83;21488;-81
2023/04/28 14:00:36;;;;;;;5.25;3.65;;;;;;;12.60;100.00;99450.48;1722207;83;21770;-81
2023/04/28 14:03:43;;;;;;;9.10;6.75;;;;;;;12.54;100.00;99455.77;1723028;83;21826;-81
2023/04/28 14:06:50;;;;;;;8.13;4.05;;;;;;;12.54;100.00;99454.39;1723624;83;21184;-81
2023/04/28 14:09:57;;;;;;;5.20;4.00;;;;;;;12.66;100.00;99453.78;1722149;83;21775;-80
2023/04/28 14:12:56;;;;;;;3.95;3.20;;;;;;;12.59;100.00;99458.41;1723568;83;21779;-80
2023/04/28 14:16:02;;;;;;;3.47;3.17;;;;;;;12.56;100.00;99454.70;1723507;83;21236;-81